createdAt,value
2022-12-23T00:00:21.255Z,6.07
2022-12-23T00:02:48.996Z,6.09
2022-12-23T00:05:16.845Z,6.13
2022-12-23T00:07:45.275Z,6.20
2022-12-23T00:10:14.208Z,6.17
2022-12-23T00:12:59.392Z,6.16
2022-12-23T00:15:26.931Z,6.22
2022-12-23T00:17:54.575Z,6.21
2022-12-23T00:20:22.227Z,6.13
2022-12-23T00:23:07.815Z,6.14
2022-12-23T00:25:42.330Z,6.17
2022-12-23T00:28:12.208Z,6.17
2022-12-23T00:30:45.792Z,6.21
2022-12-23T00:33:13.515Z,6.22
2022-12-23T00:35:41.085Z,6.24
2022-12-23T00:38:08.643Z,6.28
2022-12-23T00:40:55.283Z,6.27
2022-12-23T00:43:22.879Z,6.31
2022-12-23T00:45:50.570Z,6.21
2022-12-23T00:48:35.921Z,6.23
2022-12-23T00:51:03.468Z,6.21
2022-12-23T00:53:31.127Z,6.17
2022-12-23T00:56:00.049Z,6.19
2022-12-23T00:58:27.665Z,6.18
2022-12-23T01:01:12.967Z,6.14
2022-12-23T01:03:58.073Z,6.18
2022-12-23T01:06:25.575Z,6.22
2022-12-23T01:08:53.072Z,6.21
2022-12-23T01:11:21.964Z,6.24
2022-12-23T01:13:49.502Z,6.21
2022-12-23T01:16:17.999Z,6.20
2022-12-23T01:18:45.880Z,6.22
2022-12-23T01:21:13.598Z,6.23
2022-12-23T01:23:41.390Z,6.21
2022-12-23T01:26:09.315Z,6.19
2022-12-23T01:28:38.232Z,6.20
2022-12-23T01:31:07.213Z,6.18
2022-12-23T01:33:34.993Z,6.19
2022-12-23T01:36:03.619Z,6.21
2022-12-23T01:38:31.346Z,6.22
2022-12-23T01:40:59.244Z,6.24
2022-12-23T01:43:46.160Z,6.25
2022-12-23T01:46:13.877Z,6.25
2022-12-23T01:48:43.087Z,6.27
2022-12-23T01:51:14.803Z,6.24
2022-12-23T01:53:47.041Z,6.24
2022-12-23T01:56:17.983Z,6.26
2022-12-23T01:58:51.407Z,6.31
2022-12-23T02:01:37.399Z,6.33
2022-12-23T02:04:07.326Z,6.35
2022-12-23T02:06:55.345Z,6.39
2022-12-23T02:09:25.748Z,6.37
2022-12-23T02:12:21.309Z,6.38
2022-12-23T02:15:24.312Z,6.39
2022-12-23T02:18:04.693Z,6.35
2022-12-23T02:20:59.522Z,6.32
2022-12-23T02:23:59.318Z,6.36
2022-12-23T02:26:54.476Z,6.33
2022-12-23T02:29:52.195Z,6.29
2022-12-23T02:32:25.780Z,6.30
2022-12-23T02:34:56.591Z,6.32
2022-12-23T02:37:33.275Z,6.33
2022-12-23T02:40:07.976Z,6.33
2022-12-23T02:42:39.697Z,6.40
2022-12-23T02:45:12.778Z,6.38
2022-12-23T02:47:45.759Z,6.39
2022-12-23T02:50:19.336Z,6.35
2022-12-23T02:52:50.739Z,6.36
2022-12-23T02:55:23.148Z,6.30
2022-12-23T02:57:54.924Z,6.18
2022-12-23T03:00:23.547Z,6.19
2022-12-23T03:02:52.619Z,6.17
2022-12-23T03:05:28.595Z,6.10
2022-12-23T03:08:02.476Z,6.12
2022-12-23T03:10:40.289Z,6.16
2022-12-23T03:13:19.266Z,6.14
2022-12-23T03:15:53.769Z,6.08
2022-12-23T03:18:34.353Z,6.08
2022-12-23T03:21:09.063Z,6.12
2022-12-23T03:23:41.730Z,6.17
2022-12-23T03:26:15.092Z,6.21
2022-12-23T03:28:48.263Z,6.23
2022-12-23T03:31:21.315Z,6.16
2022-12-23T03:33:55.436Z,6.18
2022-12-23T03:36:26.864Z,6.13
2022-12-23T03:38:56.801Z,6.12
2022-12-23T03:41:34.756Z,6.11
2022-12-23T03:44:07.716Z,6.08
2022-12-23T03:46:39.226Z,6.10
2022-12-23T03:49:12.956Z,6.12
2022-12-23T03:51:47.401Z,6.14
2022-12-23T03:54:19.961Z,6.17
2022-12-23T03:56:52.123Z,6.13
2022-12-23T03:59:24.849Z,6.13
2022-12-23T04:02:05.655Z,6.11
2022-12-23T04:04:50.671Z,6.15
2022-12-23T04:07:22.938Z,6.11
2022-12-23T04:09:52.909Z,6.15
2022-12-23T04:12:23.601Z,6.09
2022-12-23T04:14:51.945Z,6.14
2022-12-23T04:17:20.340Z,6.12
2022-12-23T04:19:50.751Z,6.13
2022-12-23T04:22:18.320Z,6.14
2022-12-23T04:24:45.826Z,6.25
2022-12-23T04:27:14.866Z,6.26
2022-12-23T04:29:43.151Z,6.24
2022-12-23T04:32:11.284Z,6.16
2022-12-23T04:34:38.856Z,6.18
2022-12-23T04:37:07.713Z,6.14
2022-12-23T04:39:35.251Z,6.09
2022-12-23T04:42:02.755Z,6.08
2022-12-23T04:44:30.292Z,6.03
2022-12-23T04:46:58.032Z,5.99
2022-12-23T04:49:25.640Z,5.93
2022-12-23T04:51:53.173Z,5.89
2022-12-23T04:54:22.083Z,5.92
2022-12-23T04:56:49.620Z,5.90
2022-12-23T04:59:17.433Z,5.87
2022-12-23T05:01:45.097Z,5.89
2022-12-23T05:04:14.122Z,5.85
2022-12-23T05:06:41.697Z,5.86
2022-12-23T05:09:09.517Z,5.83
2022-12-23T05:11:42.046Z,5.80
2022-12-23T05:14:10.687Z,5.81
2022-12-23T05:16:38.812Z,5.81
2022-12-23T05:19:06.467Z,5.88
2022-12-23T05:21:34.253Z,5.86
2022-12-23T05:24:01.758Z,5.89
2022-12-23T05:26:29.336Z,5.90
2022-12-23T05:28:58.153Z,5.92
2022-12-23T05:31:25.767Z,5.92
2022-12-23T05:33:53.351Z,5.89
2022-12-23T05:36:20.994Z,5.86
2022-12-23T05:38:48.869Z,5.85
2022-12-23T05:41:17.400Z,5.91
2022-12-23T05:43:44.903Z,5.86
2022-12-23T05:46:13.861Z,5.88
2022-12-23T05:48:41.459Z,5.90
2022-12-23T05:51:09.008Z,5.89
2022-12-23T05:53:36.605Z,5.92
2022-12-23T05:56:05.861Z,5.88
2022-12-23T05:58:33.505Z,5.84
2022-12-23T06:01:02.447Z,5.86
2022-12-23T06:03:31.619Z,5.82
2022-12-23T06:05:59.316Z,5.87
2022-12-23T06:08:26.877Z,5.80
2022-12-23T06:10:54.404Z,5.79
2022-12-23T06:13:21.935Z,5.78
2022-12-23T06:15:49.588Z,5.84
2022-12-23T06:18:17.084Z,5.80
2022-12-23T06:20:48.128Z,5.84
2022-12-23T06:23:15.677Z,5.78
2022-12-23T06:25:43.231Z,5.73
2022-12-23T06:28:10.782Z,5.74
2022-12-23T06:30:38.310Z,5.81
2022-12-23T06:33:05.877Z,5.76
2022-12-23T06:35:33.489Z,5.69
2022-12-23T06:38:02.392Z,5.61
2022-12-23T06:40:29.960Z,5.69
2022-12-23T06:42:57.512Z,5.62
2022-12-23T06:45:25.070Z,5.68
2022-12-23T06:47:52.638Z,5.73
2022-12-23T06:50:20.555Z,5.73
2022-12-23T06:52:48.944Z,5.70
2022-12-23T06:55:18.098Z,5.73
2022-12-23T06:57:45.886Z,5.77
2022-12-23T07:00:14.926Z,5.73
2022-12-23T07:02:42.579Z,5.74
2022-12-23T07:05:10.627Z,5.70
2022-12-23T07:07:38.107Z,5.67
2022-12-23T07:10:06.791Z,5.62
2022-12-23T07:12:35.731Z,5.64
2022-12-23T07:15:03.448Z,5.67
2022-12-23T07:17:31.309Z,5.69
2022-12-23T07:19:59.377Z,5.61
2022-12-23T07:22:26.894Z,5.70
2022-12-23T07:24:54.453Z,5.68
2022-12-23T07:27:22.075Z,5.73
2022-12-23T07:29:50.943Z,5.69
2022-12-23T07:32:18.540Z,5.67
2022-12-23T07:34:46.041Z,5.75
2022-12-23T07:37:13.567Z,5.75
2022-12-23T07:39:41.080Z,5.72
2022-12-23T07:42:42.901Z,5.74
2022-12-23T07:44:57.534Z,5.68
2022-12-23T07:47:25.190Z,5.67
2022-12-23T07:49:52.739Z,5.69
2022-12-23T07:52:20.544Z,5.71
2022-12-23T07:54:48.075Z,5.66
2022-12-23T07:57:15.655Z,5.71
2022-12-23T07:59:43.146Z,5.68
2022-12-23T08:02:12.399Z,5.76
2022-12-23T08:04:45.781Z,5.74
2022-12-23T08:07:13.927Z,5.69
2022-12-23T08:09:41.505Z,5.70
2022-12-23T08:12:09.067Z,5.66
2022-12-23T08:14:36.769Z,5.68
2022-12-23T08:17:04.358Z,5.73
2022-12-23T08:19:33.382Z,5.72
2022-12-23T08:22:00.917Z,5.66
2022-12-23T08:24:28.446Z,5.75
2022-12-23T08:26:55.991Z,5.77
2022-12-23T08:29:23.505Z,5.67
2022-12-23T08:31:51.641Z,5.75
2022-12-23T08:34:19.297Z,5.77
2022-12-23T08:36:48.191Z,5.88
2022-12-23T08:39:15.912Z,5.97
2022-12-23T08:41:45.789Z,5.94
2022-12-23T08:44:13.992Z,5.87
2022-12-23T08:46:42.338Z,5.86
2022-12-23T08:49:10.549Z,5.88
2022-12-23T08:51:38.767Z,5.90
2022-12-23T08:54:07.687Z,5.93
2022-12-23T08:56:37.392Z,5.95
2022-12-23T08:59:05.611Z,5.93
2022-12-23T09:01:35.589Z,5.86
2022-12-23T09:04:04.467Z,5.95
2022-12-23T09:06:35.808Z,6.00
2022-12-23T09:09:03.650Z,6.05
2022-12-23T09:11:32.597Z,6.00
2022-12-23T09:14:01.406Z,6.01
2022-12-23T09:16:30.064Z,6.03
2022-12-23T09:18:57.882Z,6.05
2022-12-23T09:21:25.997Z,5.97
2022-12-23T09:23:53.849Z,6.06
2022-12-23T09:26:23.620Z,5.99
2022-12-23T09:28:53.156Z,5.94
2022-12-23T09:31:21.510Z,6.03
2022-12-23T09:33:50.809Z,6.00
2022-12-23T09:36:18.784Z,6.05
2022-12-23T09:38:46.677Z,6.04
2022-12-23T09:41:27.075Z,5.99
2022-12-23T09:44:14.168Z,6.05
2022-12-23T09:46:48.796Z,6.01
2022-12-23T09:49:18.614Z,5.99
2022-12-23T09:51:47.413Z,5.95
2022-12-23T09:54:18.803Z,5.95
2022-12-23T09:56:52.318Z,6.01
2022-12-23T09:59:37.070Z,6.00
2022-12-23T10:02:19.692Z,6.00
2022-12-23T10:04:57.910Z,5.94
2022-12-23T10:07:32.944Z,5.90
2022-12-23T10:10:07.432Z,5.93
2022-12-23T10:12:40.428Z,5.96
2022-12-23T10:15:31.891Z,6.04
2022-12-23T10:18:05.032Z,6.04
2022-12-23T10:20:40.306Z,6.08
2022-12-23T10:23:15.726Z,6.03
2022-12-23T10:25:50.432Z,6.05
2022-12-23T10:28:18.740Z,6.09
2022-12-23T10:31:23.828Z,6.09
2022-12-23T10:33:55.613Z,6.12
2022-12-23T10:36:34.286Z,6.09
2022-12-23T10:39:09.287Z,6.18
2022-12-23T10:41:45.626Z,6.14
2022-12-23T10:44:37.002Z,6.20
2022-12-23T10:47:17.567Z,6.27
2022-12-23T10:50:02.362Z,6.37
2022-12-23T10:52:33.323Z,6.37
2022-12-23T10:55:00.919Z,6.41
2022-12-23T10:57:30.251Z,6.39
2022-12-23T10:59:58.353Z,6.47
2022-12-23T11:02:48.216Z,6.39
2022-12-23T11:05:18.702Z,6.46
2022-12-23T11:07:47.682Z,6.49
2022-12-23T11:10:19.354Z,6.47
2022-12-23T11:12:49.441Z,6.50
2022-12-23T11:15:29.890Z,6.50
2022-12-23T11:18:06.572Z,6.53
2022-12-23T11:20:35.316Z,6.56
2022-12-23T11:23:04.720Z,6.63
2022-12-23T11:25:35.743Z,6.61
2022-12-23T11:28:08.741Z,6.58
2022-12-23T11:30:39.711Z,6.57
2022-12-23T11:33:21.910Z,6.60
2022-12-23T11:36:01.915Z,6.64
2022-12-23T11:38:29.750Z,6.67
2022-12-23T11:40:57.897Z,6.64
2022-12-23T11:43:27.500Z,6.72
2022-12-23T11:46:18.033Z,6.71
2022-12-23T11:48:52.865Z,6.70
2022-12-23T11:51:27.602Z,6.62
2022-12-23T11:54:00.758Z,6.56
2022-12-23T11:56:30.060Z,6.58
2022-12-23T11:59:06.659Z,6.62
2022-12-23T12:01:34.406Z,6.62
2022-12-23T12:04:08.812Z,6.56
2022-12-23T12:06:42.645Z,6.49
2022-12-23T12:09:13.843Z,6.54
2022-12-23T12:11:47.762Z,6.51
2022-12-23T12:14:22.856Z,6.65
2022-12-23T12:16:59.434Z,6.68
2022-12-23T12:19:32.258Z,6.68
2022-12-23T12:22:05.242Z,6.74
2022-12-23T12:24:37.793Z,6.69
2022-12-23T12:27:07.918Z,6.66
2022-12-23T12:29:40.761Z,6.68
2022-12-23T12:32:16.582Z,6.65
2022-12-23T12:34:52.826Z,6.62
2022-12-23T12:37:29.099Z,6.62
2022-12-23T12:40:01.141Z,6.65
2022-12-23T12:42:34.229Z,6.77
2022-12-23T12:45:14.372Z,6.78
2022-12-23T12:47:59.917Z,6.86
2022-12-23T12:50:35.448Z,6.87
2022-12-23T12:53:12.966Z,6.88
2022-12-23T12:55:43.330Z,6.87
2022-12-23T12:58:16.448Z,6.88
2022-12-23T13:00:55.042Z,6.97
2022-12-23T13:03:34.344Z,6.97
2022-12-23T13:06:13.936Z,7.00
2022-12-23T13:08:55.095Z,6.94
2022-12-23T13:11:31.124Z,6.90
2022-12-23T13:14:07.151Z,6.89
2022-12-23T13:16:45.733Z,6.85
2022-12-23T13:19:27.171Z,6.85
2022-12-23T13:22:02.557Z,6.85
2022-12-23T13:24:37.622Z,6.92
2022-12-23T13:27:12.104Z,7.03
2022-12-23T13:30:01.954Z,6.92
2022-12-23T13:32:47.181Z,6.99
2022-12-23T13:35:32.098Z,6.99
2022-12-23T13:38:12.860Z,6.97
2022-12-23T13:40:48.546Z,6.99
2022-12-23T13:43:19.858Z,6.95
2022-12-23T13:45:48.615Z,6.97
2022-12-23T13:48:31.774Z,6.89
2022-12-23T13:51:05.129Z,6.91
2022-12-23T13:53:49.118Z,6.98
2022-12-23T13:56:26.887Z,6.99
2022-12-23T13:58:55.164Z,7.02
2022-12-23T14:01:34.728Z,7.05
2022-12-23T14:04:35.099Z,7.04
2022-12-23T14:07:06.012Z,7.08
2022-12-23T14:09:38.206Z,7.09
2022-12-23T14:12:13.394Z,7.07
2022-12-23T14:14:48.355Z,7.10
2022-12-23T14:17:25.052Z,7.05
2022-12-23T14:20:04.053Z,7.00
2022-12-23T14:22:51.920Z,6.96
2022-12-23T14:25:46.529Z,7.00
2022-12-23T14:28:29.449Z,7.00
2022-12-23T14:30:57.162Z,7.00
2022-12-23T14:33:27.071Z,6.97
2022-12-23T14:36:13.846Z,6.95
2022-12-23T14:38:41.627Z,6.97
2022-12-23T14:41:26.321Z,6.98
2022-12-23T14:43:59.509Z,6.98
2022-12-23T14:46:55.344Z,6.96
2022-12-23T14:49:40.129Z,6.91
2022-12-23T14:52:50.837Z,6.92
2022-12-23T14:55:43.984Z,6.98
2022-12-23T14:58:29.980Z,6.95
2022-12-23T15:01:03.805Z,6.91
2022-12-23T15:03:35.641Z,6.85
2022-12-23T15:06:08.058Z,6.89
2022-12-23T15:08:39.683Z,6.90
2022-12-23T15:11:10.262Z,6.85
2022-12-23T15:13:39.446Z,6.87
2022-12-23T15:16:07.835Z,6.88
2022-12-23T15:18:35.493Z,6.77
2022-12-23T15:21:10.649Z,6.79
2022-12-23T15:23:38.234Z,6.76
2022-12-23T15:26:06.063Z,6.77
2022-12-23T15:28:38.477Z,6.80
2022-12-23T15:31:17.026Z,6.80
2022-12-23T15:34:05.364Z,6.79
2022-12-23T15:36:36.397Z,6.80
2022-12-23T15:39:09.709Z,6.79
2022-12-23T15:41:43.496Z,6.74
2022-12-23T15:44:15.193Z,6.74
2022-12-23T15:46:44.413Z,6.68
2022-12-23T15:49:12.926Z,6.63
2022-12-23T15:54:36.611Z,6.65
2022-12-23T15:57:05.749Z,6.67
2022-12-23T15:59:37.828Z,6.68
2022-12-23T16:02:49.685Z,6.74
2022-12-23T16:05:06.111Z,6.71
2022-12-23T16:07:36.075Z,6.67
2022-12-23T16:10:12.594Z,6.67
2022-12-23T16:12:41.398Z,6.67
2022-12-23T16:15:21.734Z,6.69
2022-12-23T16:17:50.619Z,6.71
2022-12-23T16:20:22.927Z,6.70
2022-12-23T16:22:54.358Z,6.66
2022-12-23T16:25:25.343Z,6.66
2022-12-23T16:27:57.337Z,6.62
2022-12-23T16:30:30.582Z,6.60
2022-12-23T16:33:02.222Z,6.62
2022-12-23T16:35:34.165Z,6.55
2022-12-23T16:38:12.818Z,6.47
2022-12-23T16:40:40.525Z,6.45
2022-12-23T16:43:08.284Z,6.42
2022-12-23T16:45:37.407Z,6.40
2022-12-23T16:48:12.234Z,6.39
2022-12-23T16:50:39.795Z,6.39
2022-12-23T16:53:07.373Z,6.35
2022-12-23T16:55:34.911Z,6.39
2022-12-23T16:58:02.445Z,6.35
2022-12-23T17:00:29.977Z,6.27
2022-12-23T17:02:58.000Z,6.31
2022-12-23T17:05:27.015Z,6.29
2022-12-23T17:07:54.696Z,6.27
2022-12-23T17:10:22.296Z,6.21
2022-12-23T17:12:50.973Z,6.25
2022-12-23T17:15:20.752Z,6.25
2022-12-23T17:17:50.037Z,6.29
2022-12-23T17:20:18.536Z,6.28
2022-12-23T17:22:51.813Z,6.29
2022-12-23T17:25:26.274Z,6.23
2022-12-23T17:27:55.617Z,6.27
2022-12-23T17:30:25.606Z,6.29
2022-12-23T17:32:56.284Z,6.22
2022-12-23T17:35:24.476Z,6.25
2022-12-23T17:37:54.044Z,6.27
2022-12-23T17:40:21.627Z,6.27
2022-12-23T17:42:49.463Z,6.25
2022-12-23T17:45:25.160Z,6.22
2022-12-23T17:47:52.709Z,6.23
2022-12-23T17:50:21.645Z,6.27
2022-12-23T17:52:49.563Z,6.25
2022-12-23T17:55:21.309Z,6.29
2022-12-23T17:57:49.131Z,6.25
2022-12-23T18:00:26.567Z,6.29
2022-12-23T18:02:59.206Z,6.29
2022-12-23T18:05:28.488Z,6.23
2022-12-23T18:07:58.159Z,6.20
2022-12-23T18:10:29.997Z,6.19
2022-12-23T18:13:00.311Z,6.14
2022-12-23T18:15:33.557Z,6.14
2022-12-23T18:18:01.173Z,6.07
2022-12-23T18:20:29.053Z,6.10
2022-12-23T18:22:59.133Z,6.06
2022-12-23T18:25:28.247Z,6.13
2022-12-23T18:27:55.802Z,6.14
2022-12-23T18:30:23.503Z,6.12
2022-12-23T18:32:51.059Z,6.16
2022-12-23T18:35:27.877Z,6.15
2022-12-23T18:37:55.605Z,6.14
2022-12-23T18:40:26.768Z,6.18
2022-12-23T18:42:59.817Z,6.17
2022-12-23T18:45:35.147Z,6.18
2022-12-23T18:48:03.884Z,6.21
2022-12-23T18:50:32.394Z,6.23
2022-12-23T18:53:00.202Z,6.18
2022-12-23T18:55:30.156Z,6.21
2022-12-23T18:57:58.957Z,6.25
2022-12-23T19:00:30.367Z,6.27
2022-12-23T19:02:58.248Z,6.18
2022-12-23T19:05:29.140Z,6.19
2022-12-23T19:07:58.825Z,6.18
2022-12-23T19:10:28.688Z,6.22
2022-12-23T19:12:56.435Z,6.22
2022-12-23T19:15:24.615Z,6.20
2022-12-23T19:17:53.700Z,6.23
2022-12-23T19:20:22.039Z,6.23
2022-12-23T19:22:50.014Z,6.19
2022-12-23T19:25:19.829Z,6.21
2022-12-23T19:27:48.061Z,6.18
2022-12-23T19:30:17.139Z,6.20
2022-12-23T19:32:45.013Z,6.20
2022-12-23T19:35:15.007Z,6.20
2022-12-23T19:37:43.001Z,6.16
2022-12-23T19:40:11.676Z,6.18
2022-12-23T19:42:39.423Z,6.13
2022-12-23T19:45:08.850Z,6.13
2022-12-23T19:47:36.881Z,6.12
2022-12-23T19:50:06.561Z,6.08
2022-12-23T19:52:35.791Z,6.13
2022-12-23T19:55:03.626Z,6.14
2022-12-23T19:57:31.432Z,6.09
2022-12-23T19:59:59.007Z,6.09
2022-12-23T20:02:26.533Z,6.06
2022-12-23T20:04:54.058Z,6.05
2022-12-23T20:07:21.625Z,6.03
2022-12-23T20:09:50.480Z,6.00
2022-12-23T20:12:17.999Z,6.03
2022-12-23T20:14:45.540Z,5.99
2022-12-23T20:17:13.051Z,5.97
2022-12-23T20:19:45.851Z,5.96
2022-12-23T20:22:14.066Z,6.00
2022-12-23T20:24:41.674Z,5.93
2022-12-23T20:27:12.501Z,5.93
2022-12-23T20:29:41.527Z,5.92
2022-12-23T20:32:09.129Z,5.86
2022-12-23T20:34:39.576Z,5.86
2022-12-23T20:37:08.214Z,5.89
2022-12-23T20:39:36.155Z,5.82
2022-12-23T20:42:04.969Z,5.78
2022-12-23T20:44:36.194Z,5.74
2022-12-23T20:47:06.329Z,5.74
2022-12-23T20:49:34.317Z,5.74
2022-12-23T20:52:02.205Z,5.73
2022-12-23T20:54:33.709Z,5.73
2022-12-23T20:57:01.756Z,5.71
2022-12-23T20:59:29.470Z,5.69
2022-12-23T21:01:59.337Z,5.67
2022-12-23T21:04:27.384Z,5.58
2022-12-23T21:06:54.905Z,5.58
2022-12-23T21:09:22.401Z,5.57
2022-12-23T21:11:49.951Z,5.42
2022-12-23T21:14:17.864Z,5.39
2022-12-23T21:16:45.755Z,5.36
2022-12-23T21:19:18.294Z,5.33
2022-12-23T21:21:46.566Z,5.21
2022-12-23T21:24:14.804Z,5.26
2022-12-23T21:26:42.710Z,5.21
2022-12-23T21:29:11.737Z,5.27
2022-12-23T21:31:41.901Z,5.13
2022-12-23T21:34:09.728Z,5.14
2022-12-23T21:36:39.662Z,5.13
2022-12-23T21:39:08.145Z,5.12
2022-12-23T21:41:38.535Z,5.08
2022-12-23T21:44:06.661Z,5.12
2022-12-23T21:46:34.928Z,5.15
2022-12-23T21:49:03.064Z,5.12
2022-12-23T21:51:38.902Z,5.09
2022-12-23T21:54:10.307Z,5.10
2022-12-23T21:56:38.244Z,5.16
2022-12-23T21:59:08.370Z,5.10
2022-12-23T22:01:36.249Z,5.07
2022-12-23T22:04:04.185Z,5.10
2022-12-23T22:06:33.728Z,5.02
2022-12-23T22:09:01.249Z,4.96
2022-12-23T22:11:32.241Z,5.05
2022-12-23T22:14:02.995Z,5.04
2022-12-23T22:16:32.255Z,5.03
2022-12-23T22:19:01.630Z,5.01
2022-12-23T22:21:31.729Z,5.03
2022-12-23T22:24:00.087Z,4.97
2022-12-23T22:26:30.880Z,5.06
2022-12-23T22:29:00.635Z,5.05
2022-12-23T22:31:32.741Z,5.00
2022-12-23T22:34:00.316Z,4.99
2022-12-23T22:36:27.933Z,4.96
2022-12-23T22:38:57.581Z,4.93
2022-12-23T22:41:27.802Z,4.87
2022-12-23T22:43:57.111Z,4.86
2022-12-23T22:46:25.357Z,4.85
2022-12-23T22:48:53.584Z,4.87
2022-12-23T22:51:22.933Z,4.87
2022-12-23T22:53:50.553Z,4.87
2022-12-23T22:56:19.505Z,4.88
2022-12-23T22:58:47.098Z,4.88
2022-12-23T23:01:22.260Z,4.94
2022-12-23T23:03:51.000Z,4.92
2022-12-23T23:06:18.815Z,4.91
2022-12-23T23:08:46.388Z,4.90
2022-12-23T23:11:13.958Z,4.89
2022-12-23T23:13:41.514Z,4.90
2022-12-23T23:16:09.269Z,4.83
2022-12-23T23:18:39.304Z,4.80
2022-12-23T23:21:06.932Z,4.85
2022-12-23T23:23:34.716Z,4.83
2022-12-23T23:26:02.285Z,4.84
2022-12-23T23:28:29.840Z,4.80
2022-12-23T23:31:23.745Z,4.83
2022-12-23T23:33:46.964Z,4.84
2022-12-23T23:36:15.586Z,4.81
2022-12-23T23:38:43.164Z,4.83
2022-12-23T23:41:10.807Z,4.81
2022-12-23T23:43:38.376Z,4.77
2022-12-23T23:46:05.950Z,4.77
2022-12-23T23:48:33.512Z,4.84
2022-12-23T23:51:06.555Z,4.70
2022-12-23T23:53:34.427Z,4.68
2022-12-23T23:56:03.781Z,4.75
2022-12-23T23:58:31.435Z,4.78
